createdAt,value
2023-04-19T00:00:47.949Z,96828.00
2023-04-19T00:04:55.876Z,96822.00
2023-04-19T00:09:01.824Z,96819.00
2023-04-19T00:13:10.548Z,96818.00
2023-04-19T00:17:13.624Z,96808.00
2023-04-19T00:21:18.322Z,96813.00
2023-04-19T00:25:24.925Z,96810.00
2023-04-19T00:29:30.024Z,96801.00
2023-04-19T00:33:36.005Z,96799.00
2023-04-19T00:37:40.431Z,96796.00
2023-04-19T00:41:45.669Z,96797.00
2023-04-19T00:45:52.106Z,96792.00
2023-04-19T00:49:57.783Z,96792.00
2023-04-19T00:54:03.947Z,96785.00
2023-04-19T00:58:08.395Z,96778.00
2023-04-19T01:02:11.882Z,96774.00
2023-04-19T01:06:17.255Z,96776.00
2023-04-19T01:10:21.696Z,96773.00
2023-04-19T01:14:24.727Z,96766.00
2023-04-19T01:18:32.909Z,96762.00
2023-04-19T01:22:38.129Z,96760.00
2023-04-19T01:26:41.178Z,96760.00
2023-04-19T01:30:44.716Z,96743.00
2023-04-19T01:34:51.097Z,96739.00
2023-04-19T01:38:55.578Z,96735.00
2023-04-19T01:43:03.594Z,96731.00
2023-04-19T01:47:07.028Z,96732.00
2023-04-19T01:51:14.155Z,96734.00
2023-04-19T01:55:19.273Z,96726.00
2023-04-19T01:59:22.275Z,96734.00
2023-04-19T02:03:27.765Z,96729.00
2023-04-19T02:07:33.702Z,96739.00
2023-04-19T02:11:41.083Z,96717.00
2023-04-19T02:15:44.092Z,96719.00
2023-04-19T02:19:49.452Z,96715.00
2023-04-19T02:23:52.554Z,96707.00
2023-04-19T02:27:56.951Z,96707.00
2023-04-19T02:32:01.294Z,96700.00
2023-04-19T02:36:04.551Z,96694.00
2023-04-19T02:40:09.401Z,96695.00
2023-04-19T02:44:15.146Z,96695.00
2023-04-19T02:48:22.529Z,96682.00
2023-04-19T02:52:27.200Z,96680.00
2023-04-19T02:56:30.205Z,96678.00
2023-04-19T03:00:37.594Z,96674.00
2023-04-19T03:04:40.984Z,96666.00
2023-04-19T03:08:43.993Z,96668.00
2023-04-19T03:12:50.550Z,96664.00
2023-04-19T03:16:55.198Z,96661.00
2023-04-19T03:20:58.471Z,96659.00
2023-04-19T03:25:01.477Z,96644.00
2023-04-19T03:29:07.482Z,96644.00
2023-04-19T03:33:13.696Z,96634.00
2023-04-19T03:37:17.202Z,96641.00
2023-04-19T03:41:20.852Z,96629.00
2023-04-19T03:45:28.194Z,96626.00
2023-04-19T03:49:33.839Z,96623.00
2023-04-19T03:53:37.683Z,96621.00
2023-04-19T03:57:41.107Z,96621.00
2023-04-19T04:01:46.090Z,96616.00
2023-04-19T04:05:52.491Z,96620.00
2023-04-19T04:09:55.521Z,96616.00
2023-04-19T04:13:58.592Z,96619.00
2023-04-19T04:18:03.968Z,96618.00
2023-04-19T04:22:09.754Z,96613.00
2023-04-19T04:26:17.427Z,96618.00
2023-04-19T04:30:20.558Z,96618.00
2023-04-19T04:34:24.688Z,96621.00
2023-04-19T04:38:37.693Z,96622.00
2023-04-19T04:42:41.409Z,96618.00
2023-04-19T04:46:44.456Z,96618.00
2023-04-19T04:50:57.508Z,96623.00
2023-04-19T04:55:02.067Z,96617.00
2023-04-19T04:59:06.207Z,96618.00
2023-04-19T05:03:09.292Z,96613.00
2023-04-19T05:07:15.407Z,96617.00
2023-04-19T05:11:21.023Z,96609.00
2023-04-19T05:15:28.942Z,96615.00
2023-04-19T05:19:34.720Z,96617.00
2023-04-19T05:23:38.483Z,96622.00
2023-04-19T05:27:43.010Z,96623.00
2023-04-19T05:31:51.043Z,96617.00
2023-04-19T05:35:55.154Z,96606.00
2023-04-19T05:40:00.776Z,96593.00
2023-04-19T05:44:07.471Z,96599.00
2023-04-19T05:48:10.590Z,96591.00
2023-04-19T05:52:16.125Z,96588.00
2023-04-19T05:56:22.196Z,96582.00
2023-04-19T06:00:27.796Z,96584.00
2023-04-19T06:04:34.092Z,96592.00
2023-04-19T06:08:37.330Z,96596.00
2023-04-19T06:12:40.746Z,96584.00
2023-04-19T06:16:47.819Z,96590.00
2023-04-19T06:20:50.905Z,96589.00
2023-04-19T06:24:55.349Z,96586.00
2023-04-19T06:28:59.199Z,96584.00
2023-04-19T06:33:11.096Z,96583.00
2023-04-19T06:37:14.771Z,96583.00
2023-04-19T06:41:18.437Z,96581.00
2023-04-19T06:45:22.195Z,96580.00
2023-04-19T06:49:26.579Z,96574.00
2023-04-19T06:53:29.758Z,96566.00
2023-04-19T06:57:35.671Z,96572.00
2023-04-19T07:01:39.226Z,96568.00
2023-04-19T07:05:43.956Z,96563.00
2023-04-19T07:09:50.954Z,96562.00
2023-04-19T07:13:54.346Z,96561.00
2023-04-19T07:17:57.370Z,96556.00
2023-04-19T07:22:03.318Z,96555.00
2023-04-19T07:26:06.417Z,96558.00
2023-04-19T07:30:13.189Z,96558.00
2023-04-19T07:34:16.469Z,96554.00
2023-04-19T07:38:25.148Z,96549.00
2023-04-19T07:42:30.688Z,96548.00
2023-04-19T07:46:35.947Z,96548.00
2023-04-19T07:50:39.106Z,96547.00
2023-04-19T07:54:43.556Z,96546.00
2023-04-19T07:58:50.698Z,96551.00
2023-04-19T08:02:58.303Z,96547.00
2023-04-19T08:07:05.043Z,96544.00
2023-04-19T08:11:09.445Z,96542.00
2023-04-19T08:15:41.148Z,96533.00
2023-04-19T08:19:39.685Z,96536.00
2023-04-19T08:23:48.378Z,96534.00
2023-04-19T08:27:53.005Z,96538.00
2023-04-19T08:31:56.313Z,96531.00
2023-04-19T08:35:59.412Z,96526.00
2023-04-19T08:40:02.765Z,96528.00
2023-04-19T08:44:08.665Z,96518.00
2023-04-19T08:48:14.770Z,96526.00
2023-04-19T08:52:19.165Z,96512.00
2023-04-19T08:56:34.916Z,96520.00
2023-04-19T09:00:41.390Z,96515.00
2023-04-19T09:04:44.664Z,96518.00
2023-04-19T09:08:52.534Z,96510.00
2023-04-19T09:13:05.187Z,96506.00
2023-04-19T09:17:19.023Z,96501.00
2023-04-19T09:21:29.733Z,96505.00
2023-04-19T09:25:52.392Z,96504.00
2023-04-19T09:29:58.842Z,96498.00
2023-04-19T09:34:24.242Z,96486.00
2023-04-19T09:38:28.487Z,96494.00
2023-04-19T09:46:54.086Z,96492.00
2023-04-19T09:51:05.822Z,96496.00
2023-04-19T09:55:24.928Z,96494.00
2023-04-19T09:59:30.344Z,96494.00
2023-04-19T10:03:36.610Z,96492.00
2023-04-19T10:07:41.856Z,96500.00
2023-04-19T10:11:54.431Z,96487.00
2023-04-19T10:16:15.683Z,96487.00
2023-04-19T10:20:26.165Z,96484.00
2023-04-19T10:24:33.071Z,96493.00
2023-04-19T10:28:38.358Z,96477.00
2023-04-19T10:32:42.484Z,96483.00
2023-04-19T10:36:48.941Z,96484.00
2023-04-19T10:41:04.262Z,96483.00
2023-04-19T10:45:33.074Z,96478.00
2023-04-19T10:49:49.022Z,96474.00
2023-04-19T10:53:59.016Z,96466.00
2023-04-19T10:58:09.257Z,96453.00
2023-04-19T11:02:36.437Z,96448.00
2023-04-19T11:06:57.410Z,96446.00
2023-04-19T11:11:00.828Z,96436.00
2023-04-19T11:15:09.513Z,96438.00
2023-04-19T11:19:16.297Z,96434.00
2023-04-19T11:23:20.053Z,96435.00
2023-04-19T11:27:23.134Z,96424.00
2023-04-19T11:31:27.671Z,96409.00
2023-04-19T11:35:31.526Z,96407.00
2023-04-19T11:39:34.546Z,96408.00
2023-04-19T11:43:41.376Z,96395.00
2023-04-19T11:47:56.901Z,96391.00
2023-04-19T11:52:03.111Z,96394.00
2023-04-19T11:56:10.550Z,96392.00
2023-04-19T12:00:15.116Z,96402.00
2023-04-19T12:04:23.624Z,96402.00
2023-04-19T12:08:37.820Z,96393.00
2023-04-19T12:12:43.665Z,96396.00
2023-04-19T12:16:50.188Z,96393.00
2023-04-19T12:20:55.398Z,96385.00
2023-04-19T12:24:58.541Z,96386.00
2023-04-19T12:29:02.853Z,96375.00
2023-04-19T12:33:07.120Z,96377.00
2023-04-19T12:37:11.967Z,96377.00
2023-04-19T12:41:15.320Z,96370.00
2023-04-19T12:45:29.112Z,96364.00
2023-04-19T12:49:34.448Z,96358.00
2023-04-19T12:53:39.199Z,96357.00
2023-04-19T12:57:46.090Z,96359.00
2023-04-19T13:01:49.139Z,96357.00
2023-04-19T13:05:53.251Z,96355.00
2023-04-19T13:09:59.969Z,96354.00
2023-04-19T13:14:08.764Z,96354.00
2023-04-19T13:18:16.893Z,96350.00
2023-04-19T13:22:19.910Z,96345.00
2023-04-19T13:26:24.550Z,96348.00
2023-04-19T13:30:28.130Z,96335.00
2023-04-19T13:34:31.249Z,96329.00
2023-04-19T13:38:34.338Z,96323.00
2023-04-19T13:42:39.084Z,96323.00
2023-04-19T13:46:44.905Z,96316.00
2023-04-19T13:50:51.104Z,96308.00
2023-04-19T13:54:57.267Z,96307.00
2023-04-19T13:59:04.413Z,96302.00
2023-04-19T14:03:09.861Z,96308.00
2023-04-19T14:07:14.914Z,96295.00
2023-04-19T14:11:35.225Z,96293.00
2023-04-19T14:15:40.389Z,96282.00
2023-04-19T14:19:43.802Z,96286.00
2023-04-19T14:23:47.366Z,96292.00
2023-04-19T14:27:50.680Z,96287.00
2023-04-19T14:31:56.111Z,96275.00
2023-04-19T14:35:59.163Z,96280.00
2023-04-19T14:40:02.238Z,96274.00
2023-04-19T14:44:09.236Z,96284.00
2023-04-19T14:48:15.407Z,96287.00
2023-04-19T14:52:22.614Z,96289.00
2023-04-19T14:56:25.811Z,96294.00
2023-04-19T15:00:28.863Z,96283.00
2023-04-19T15:04:37.397Z,96288.00
2023-04-19T15:08:47.066Z,96290.00
2023-04-19T15:12:50.049Z,96291.00
2023-04-19T15:16:53.116Z,96285.00
2023-04-19T15:21:00.313Z,96270.00
2023-04-19T15:25:08.330Z,96294.00
2023-04-19T15:29:13.488Z,96301.00
2023-04-19T15:33:16.636Z,96310.00
2023-04-19T15:37:21.162Z,96297.00
2023-04-19T15:41:25.225Z,96290.00
2023-04-19T15:45:28.627Z,96295.00
2023-04-19T15:49:36.633Z,96298.00
2023-04-19T15:53:41.313Z,96307.00
2023-04-19T15:57:50.776Z,96307.00
2023-04-19T16:01:53.931Z,96311.00
2023-04-19T16:05:57.004Z,96313.00
2023-04-19T16:10:03.421Z,96307.00
2023-04-19T16:14:06.501Z,96311.00
2023-04-19T16:18:12.516Z,96312.00
2023-04-19T16:22:15.751Z,96316.00
2023-04-19T16:26:20.162Z,96328.00
2023-04-19T16:30:23.613Z,96320.00
2023-04-19T16:34:28.115Z,96327.00
2023-04-19T16:38:36.963Z,96328.00
2023-04-19T16:42:41.856Z,96321.00
2023-04-19T16:46:44.893Z,96324.00
2023-04-19T16:50:50.457Z,96326.00
2023-04-19T16:54:55.214Z,96316.00
2023-04-19T16:59:03.465Z,96322.00
2023-04-19T17:03:10.953Z,96325.00
2023-04-19T17:07:14.255Z,96329.00
2023-04-19T17:11:19.772Z,96320.00
2023-04-19T17:15:24.435Z,96321.00
2023-04-19T17:19:31.470Z,96335.00
2023-04-19T17:23:37.237Z,96336.00
2023-04-19T17:27:45.580Z,96332.00
2023-04-19T17:31:56.178Z,96338.00
2023-04-19T17:36:01.501Z,96340.00
2023-04-19T17:40:07.298Z,96339.00
2023-04-19T17:44:13.164Z,96339.00
2023-04-19T17:48:20.201Z,96338.00
2023-04-19T17:52:32.126Z,96342.00
2023-04-19T17:56:38.750Z,96345.00
2023-04-19T18:00:41.802Z,96347.00
2023-04-19T18:04:46.450Z,96338.00
2023-04-19T18:08:49.970Z,96352.00
2023-04-19T18:12:53.884Z,96353.00
2023-04-19T18:16:58.517Z,96355.00
2023-04-19T18:21:10.021Z,96364.00
2023-04-19T18:25:13.178Z,96351.00
2023-04-19T18:29:16.749Z,96359.00
2023-04-19T18:33:22.385Z,96370.00
2023-04-19T18:37:28.763Z,96367.00
2023-04-19T18:41:31.820Z,96373.00
2023-04-19T18:45:34.965Z,96366.00
2023-04-19T18:49:38.083Z,96369.00
2023-04-19T18:53:47.511Z,96373.00
2023-04-19T18:57:51.532Z,96375.00
2023-04-19T19:01:56.772Z,96367.00
2023-04-19T19:06:00.642Z,96369.00
2023-04-19T19:14:21.552Z,96369.00
2023-04-19T19:18:27.632Z,96378.00
2023-04-19T19:22:31.161Z,96374.00
2023-04-19T19:26:35.598Z,96383.00
2023-04-19T19:30:46.125Z,96381.00
2023-04-19T19:38:55.988Z,96384.00
2023-04-19T19:43:00.859Z,96384.00
2023-04-19T19:47:09.372Z,96383.00
2023-04-19T19:51:42.211Z,96386.00
2023-04-19T19:55:37.211Z,96376.00
2023-04-19T19:59:51.345Z,96385.00
2023-04-19T20:03:58.731Z,96380.00
2023-04-19T20:08:10.163Z,96387.00
2023-04-19T20:12:16.690Z,96389.00
2023-04-19T20:16:21.230Z,96393.00
2023-04-19T20:20:27.134Z,96394.00
2023-04-19T20:24:32.283Z,96400.00
2023-04-19T20:28:36.686Z,96396.00
2023-04-19T20:32:44.225Z,96399.00
2023-04-19T20:36:47.762Z,96389.00
2023-04-19T20:40:51.063Z,96385.00
2023-04-19T20:44:54.077Z,96388.00
2023-04-19T20:49:02.821Z,96394.00
2023-04-19T20:53:07.110Z,96387.00
2023-04-19T20:57:12.336Z,96380.00
2023-04-19T21:01:21.228Z,96382.00
2023-04-19T21:05:30.056Z,96373.00
2023-04-19T21:09:33.116Z,96368.00
2023-04-19T21:13:36.286Z,96367.00
2023-04-19T21:17:39.412Z,96357.00
2023-04-19T21:21:44.120Z,96350.00
2023-04-19T21:25:47.730Z,96353.00
2023-04-19T21:29:55.715Z,96351.00
2023-04-19T21:33:59.026Z,96356.00
2023-04-19T21:38:03.737Z,96345.00
2023-04-19T21:42:08.591Z,96349.00
2023-04-19T21:46:14.271Z,96347.00
2023-04-19T21:50:27.316Z,96347.00
2023-04-19T21:54:34.219Z,96333.00
2023-04-19T21:58:38.398Z,96326.00
2023-04-19T22:02:41.646Z,96328.00
2023-04-19T22:06:46.597Z,96328.00
2023-04-19T22:10:51.494Z,96326.00
2023-04-19T22:15:01.809Z,96324.00
2023-04-19T22:19:05.213Z,96318.00
2023-04-19T22:23:08.568Z,96317.00
2023-04-19T22:27:13.195Z,96318.00
2023-04-19T22:31:16.515Z,96307.00
2023-04-19T22:35:23.785Z,96304.00
2023-04-19T22:39:27.232Z,96294.00
2023-04-19T22:43:34.573Z,96296.00
2023-04-19T22:47:42.656Z,96287.00
2023-04-19T22:51:48.411Z,96289.00
2023-04-19T22:55:51.545Z,96291.00
2023-04-19T22:59:56.112Z,96283.00
2023-04-19T23:03:59.815Z,96285.00
2023-04-19T23:08:05.855Z,96278.00
2023-04-19T23:12:09.085Z,96286.00
2023-04-19T23:16:15.853Z,96261.00
2023-04-19T23:20:19.062Z,96261.00
2023-04-19T23:24:26.044Z,96250.00
2023-04-19T23:28:32.621Z,96252.00
2023-04-19T23:32:38.259Z,96244.00
2023-04-19T23:36:45.559Z,96246.00
2023-04-19T23:40:49.753Z,96238.00
2023-04-19T23:44:55.066Z,96241.00
2023-04-19T23:48:59.482Z,96241.00
2023-04-19T23:53:07.342Z,96233.00
2023-04-19T23:57:11.226Z,96223.00
